Time;durP1;ratioP1;P1;durP2;ratioP2;P2;SDS_P1;SDS_P2;PMS_P1;PMS_P2;Temp;Humidity;BMP_temperature;BMP_pressure;BME280_temperature;BME280_humidity;BME280_pressure;Samples;Min_cycle;Max_cycle;Signal;HPM_P1;HPM_P2
2021/07/27 00:01:11;;;;;;;71.78;38.70;;;;;;;16.32;100.00;101066.38;5075932;28;20063;-62
2021/07/27 00:03:37;;;;;;;67.07;38.22;;;;;;;16.37;100.00;101066.34;5075334;28;20555;-62
2021/07/27 00:06:04;;;;;;;69.18;39.03;;;;;;;16.41;100.00;101072.50;5075357;28;20039;-62
2021/07/27 00:08:29;;;;;;;71.18;39.05;;;;;;;16.46;100.00;101062.66;5075464;28;20028;-62
2021/07/27 00:10:55;;;;;;;68.65;37.97;;;;;;;16.48;100.00;101072.34;5075166;28;20032;-62
2021/07/27 00:13:20;;;;;;;65.72;36.78;;;;;;;16.50;100.00;101065.22;5075467;28;20467;-63
2021/07/27 00:15:46;;;;;;;66.80;37.78;;;;;;;16.52;100.00;101068.72;5075165;28;20501;-63
2021/07/27 00:18:11;;;;;;;66.57;38.08;;;;;;;16.52;100.00;101059.88;5075440;28;20055;-63
2021/07/27 00:20:36;;;;;;;65.75;37.25;;;;;;;16.51;100.00;101066.09;5074329;28;20060;-62
2021/07/27 00:23:02;;;;;;;65.97;37.67;;;;;;;16.52;100.00;101063.41;5074868;28;20029;-62
2021/07/27 00:25:27;;;;;;;70.97;38.53;;;;;;;16.48;100.00;101066.16;5075091;28;20029;-63
2021/07/27 00:27:53;;;;;;;69.00;37.92;;;;;;;16.44;100.00;101062.66;5075189;28;20028;-63
2021/07/27 00:30:18;;;;;;;70.05;37.75;;;;;;;16.43;100.00;101058.22;5074598;28;20024;-62
2021/07/27 00:32:44;;;;;;;70.53;38.30;;;;;;;16.41;100.00;101060.06;5074998;28;20025;-63
2021/07/27 00:35:12;;;;;;;72.35;37.60;;;;;;;16.39;100.00;101061.84;5074990;28;20375;-62
2021/07/27 00:37:47;;;;;;;69.45;39.38;;;;;;;16.39;100.00;101069.84;5075113;28;20039;-63
2021/07/27 00:40:13;;;;;;;72.93;39.40;;;;;;;16.41;100.00;101072.50;5074694;28;20064;-62
2021/07/27 00:42:46;;;;;;;70.55;39.45;;;;;;;16.38;100.00;101060.97;5080293;28;20028;-62
2021/07/27 00:45:11;;;;;;;76.63;40.33;;;;;;;16.36;100.00;101057.44;5088689;28;20108;-62
2021/07/27 00:47:37;;;;;;;77.85;41.25;;;;;;;16.36;100.00;101057.44;5090747;28;20024;-62
2021/07/27 00:50:03;;;;;;;79.68;41.85;;;;;;;16.37;100.00;101061.88;5080688;28;20111;-63
2021/07/27 00:52:29;;;;;;;74.57;41.33;;;;;;;16.41;100.00;101059.16;5074945;28;20418;-62
2021/07/27 00:54:54;;;;;;;73.88;40.25;;;;;;;16.47;100.00;101051.03;5074815;28;20103;-63
2021/07/27 00:57:20;;;;;;;74.72;40.05;;;;;;;16.47;100.00;101048.38;5074160;28;20457;-71
2021/07/27 00:59:45;;;;;;;74.03;39.47;;;;;;;16.50;100.00;101049.22;5074544;28;20028;-66
2021/07/27 01:02:11;;;;;;;73.65;40.17;;;;;;;16.53;100.00;101048.28;5074469;28;20028;-73
2021/07/27 01:04:36;;;;;;;73.63;39.63;;;;;;;16.55;100.00;101046.47;5074742;28;20029;-73
2021/07/27 01:07:01;;;;;;;77.28;41.30;;;;;;;16.54;100.00;101056.28;5074507;28;20426;-72
2021/07/27 01:09:28;;;;;;;75.38;40.58;;;;;;;16.52;100.00;101042.06;5089822;28;20024;-64
2021/07/27 01:11:59;;;;;;;76.32;40.83;;;;;;;16.51;100.00;101036.75;5082544;28;20032;-74
2021/07/27 01:14:24;;;;;;;74.15;39.97;;;;;;;16.46;100.00;101038.63;5070730;28;20020;-77
2021/07/27 01:16:49;;;;;;;78.60;41.05;;;;;;;16.43;100.00;101044.03;5074022;28;20466;-80
2021/07/27 01:40:52;;;;;;;82.40;42.83;;;;;;;16.03;100.00;101017.09;5074203;28;20041;-65
2021/07/27 01:43:19;;;;;;;85.32;42.70;;;;;;;15.99;100.00;101019.81;5073991;28;20306;-66
2021/07/27 01:45:45;;;;;;;83.15;43.15;;;;;;;15.97;100.00;101011.81;5077291;28;20032;-71
2021/07/27 01:48:10;;;;;;;87.60;43.75;;;;;;;15.92;100.00;101008.38;5075477;28;20031;-70
2021/07/27 01:50:36;;;;;;;88.68;43.97;;;;;;;15.88;100.00;101008.44;5075576;28;20044;-66
2021/07/27 01:53:15;;;;;;;88.35;43.95;;;;;;;15.88;100.00;101011.09;5077095;28;20024;-69
2021/07/27 01:55:41;;;;;;;88.57;44.05;;;;;;;15.85;100.00;101012.03;5076896;28;20024;-70
2021/07/27 01:58:06;;;;;;;88.60;44.67;;;;;;;15.82;100.00;101012.94;5076493;28;20283;-69
2021/07/27 02:00:32;;;;;;;89.57;44.10;;;;;;;15.79;100.00;101018.31;5073564;28;20067;-62
2021/07/27 02:02:58;;;;;;;87.72;44.72;;;;;;;15.79;100.00;101020.97;5076587;28;20032;-62
2021/07/27 02:05:23;;;;;;;90.47;43.72;;;;;;;15.78;100.00;101005.88;5078536;28;20024;-63
2021/07/27 02:07:55;;;;;;;89.88;44.33;;;;;;;15.77;100.00;101013.88;5078563;28;20047;-62
2021/07/27 02:10:21;;;;;;;;;;;;;;;15.72;100.00;101005.09;5079521;28;20170;-62
2021/07/27 02:13:12;;;;;;;95.70;43.63;;;;;;;15.74;100.00;101004.16;5077619;28;20357;-62
2021/07/27 02:15:40;;;;;;;94.70;43.30;;;;;;;15.68;100.00;101004.22;5071194;28;20107;-62
2021/07/27 02:18:05;;;;;;;86.68;42.25;;;;;;;15.71;100.00;101008.63;5078313;28;20016;-62
2021/07/27 02:20:31;;;;;;;87.10;42.35;;;;;;;15.67;100.00;100998.03;5078959;28;20024;-62
2021/07/27 02:22:56;;;;;;;86.60;41.45;;;;;;;15.66;100.00;101017.56;5078539;28;20021;-62
2021/07/27 02:25:22;;;;;;;86.53;40.22;;;;;;;15.66;100.00;101012.25;5074057;28;20020;-62
2021/07/27 02:27:47;;;;;;;83.60;40.67;;;;;;;15.63;100.00;101004.31;5076789;28;20035;-62
2021/07/27 02:30:13;;;;;;;84.65;39.97;;;;;;;15.61;100.00;101015.88;5073033;28;20405;-62
2021/07/27 02:32:38;;;;;;;83.30;40.10;;;;;;;15.63;100.00;101014.09;5072696;28;20028;-62
2021/07/27 02:35:05;;;;;;;83.30;40.60;;;;;;;15.63;100.00;101012.28;5073130;28;20021;-63
2021/07/27 02:37:31;;;;;;;86.70;41.55;;;;;;;15.60;100.00;101012.34;5072928;28;20036;-62
2021/07/27 02:39:56;;;;;;;86.15;40.10;;;;;;;15.57;100.00;101011.50;5073123;28;20017;-62
2021/07/27 02:42:21;;;;;;;86.03;39.53;;;;;;;15.56;100.00;101015.94;5068660;28;20116;-65
2021/07/27 02:44:47;;;;;;;84.50;39.53;;;;;;;15.55;100.00;101018.63;5072430;28;20089;-64
2021/07/27 02:47:12;;;;;;;82.63;38.40;;;;;;;15.56;100.00;101025.72;5072840;28;20032;-66
2021/07/27 02:49:37;;;;;;;84.93;38.85;;;;;;;15.55;100.00;101026.63;5072398;28;20107;-66
2021/07/27 02:52:03;;;;;;;84.18;40.58;;;;;;;15.52;100.00;101022.22;5072506;28;20031;-66
2021/07/27 02:54:28;;;;;;;84.45;39.53;;;;;;;15.52;100.00;101019.53;5072725;28;20029;-67
2021/07/27 02:56:55;;;;;;;84.97;38.22;;;;;;;15.53;100.00;101010.66;5072361;28;20045;-66
2021/07/27 02:59:20;;;;;;;91.68;40.75;;;;;;;15.52;100.00;101020.44;5072240;28;20028;-65
2021/07/27 03:01:46;;;;;;;82.72;39.30;;;;;;;15.48;100.00;101018.72;5072806;28;20070;-66
2021/07/27 03:04:11;;;;;;;80.35;38.70;;;;;;;15.48;100.00;101017.84;5072558;28;20020;-66
2021/07/27 03:06:36;;;;;;;83.03;39.70;;;;;;;15.46;100.00;101016.97;5072470;28;20032;-65
2021/07/27 03:09:04;;;;;;;83.40;39.08;;;;;;;15.47;100.00;101024.94;5072603;28;20020;-65
2021/07/27 03:11:30;;;;;;;87.28;40.03;;;;;;;15.44;100.00;101029.44;5072169;28;20540;-65
2021/07/27 03:13:56;;;;;;;77.80;39.05;;;;;;;15.44;100.00;101026.78;5075831;28;20036;-69
2021/07/27 03:16:23;;;;;;;78.22;37.92;;;;;;;15.37;100.00;101022.44;5076341;28;20021;-65
2021/07/27 03:18:51;;;;;;;79.03;37.72;;;;;;;15.38;100.00;101033.06;5076530;28;20028;-66
2021/07/27 03:21:21;;;;;;;81.22;38.47;;;;;;;15.39;100.00;101029.50;5076131;28;20024;-65
2021/07/27 03:23:48;;;;;;;79.65;38.40;;;;;;;15.41;100.00;101035.69;5076293;28;20047;-69
2021/07/27 03:26:14;;;;;;;82.68;38.03;;;;;;;15.40;100.00;101030.38;5076379;28;20150;-66
2021/07/27 03:28:40;;;;;;;73.88;35.97;;;;;;;15.34;100.00;101034.88;5075961;28;20461;-66
2021/07/27 03:31:06;;;;;;;73.57;36.42;;;;;;;15.35;100.00;101038.44;5076282;28;20035;-62
2021/07/27 03:33:31;;;;;;;72.53;36.53;;;;;;;15.35;100.00;101033.09;5075882;28;20029;-62
2021/07/27 03:35:56;;;;;;;72.85;35.97;;;;;;;15.31;100.00;101034.91;5075898;28;20032;-62
2021/07/27 03:38:22;;;;;;;74.15;36.28;;;;;;;15.30;100.00;101029.59;5076084;28;20029;-62
2021/07/27 03:40:47;;;;;;;73.43;36.63;;;;;;;15.27;100.00;101022.53;5074539;28;20040;-62
2021/07/27 03:43:12;;;;;;;72.57;35.80;;;;;;;15.23;100.00;101025.25;5075786;28;20457;-62
2021/07/27 03:45:38;;;;;;;73.95;37.10;;;;;;;15.22;100.00;101026.13;5076049;28;20029;-62
2021/07/27 03:48:03;;;;;;;74.43;37.15;;;;;;;15.20;100.00;101036.81;5075666;28;20052;-62
2021/07/27 03:50:28;;;;;;;71.45;36.22;;;;;;;15.18;100.00;101025.31;5075952;28;20032;-62
2021/07/27 03:52:54;;;;;;;75.32;37.25;;;;;;;15.18;100.00;101027.97;5075685;28;20463;-62
2021/07/27 03:55:19;;;;;;;73.97;36.55;;;;;;;15.18;100.00;101029.75;5075586;28;20356;-62
2021/07/27 03:57:45;;;;;;;72.15;37.17;;;;;;;15.20;100.00;101027.94;5075558;28;20041;-63
2021/07/27 04:00:11;;;;;;;72.22;37.33;;;;;;;15.22;100.00;101032.38;5075383;28;20031;-62
2021/07/27 04:02:36;;;;;;;71.35;36.20;;;;;;;15.25;100.00;101021.66;5075452;28;20028;-63
2021/07/27 04:05:04;;;;;;;72.45;37.17;;;;;;;15.22;100.00;101028.81;5075696;28;20032;-62
2021/07/27 04:07:29;;;;;;;73.28;36.72;;;;;;;15.24;100.00;101027.88;5075586;28;20028;-63
2021/07/27 04:09:59;;;;;;;70.55;36.40;;;;;;;15.26;100.00;101027.88;5075283;28;20028;-64
2021/07/27 04:12:24;;;;;;;72.50;36.80;;;;;;;15.26;100.00;101025.19;5071736;28;20029;-75
2021/07/27 04:14:50;;;;;;;69.03;36.55;;;;;;;15.23;100.00;101019.91;5075483;28;20017;-72
2021/07/27 04:17:18;;;;;;;75.40;38.10;;;;;;;15.22;100.00;101020.81;5075317;28;20032;-72
2021/07/27 04:19:44;;;;;;;77.40;37.28;;;;;;;15.23;100.00;101017.25;5075601;28;20104;-75
2021/07/27 04:22:10;;;;;;;74.35;37.75;;;;;;;15.20;100.00;101023.50;5075569;28;20063;-75
2021/07/27 04:24:35;;;;;;;73.13;37.35;;;;;;;15.19;100.00;101015.53;5074552;28;20103;-76
2021/07/27 04:27:00;;;;;;;72.40;37.58;;;;;;;15.18;100.00;101019.13;5075708;28;20075;-78
2021/07/27 04:29:25;;;;;;;76.25;37.72;;;;;;;15.20;100.00;101011.97;5075485;28;20536;-72
2021/07/27 04:31:51;;;;;;;73.85;37.90;;;;;;;15.19;100.00;101018.19;5075139;28;20474;-76
2021/07/27 04:34:17;;;;;;;69.15;37.08;;;;;;;15.21;100.00;101005.75;5075512;28;20556;-79
2021/07/27 04:36:42;;;;;;;69.80;36.88;;;;;;;15.25;100.00;101004.81;5075572;28;20032;-70
2021/07/27 04:39:07;;;;;;;65.13;36.83;;;;;;;15.28;100.00;101002.13;5079377;28;20070;-65
2021/07/27 04:41:36;;;;;;;67.20;36.33;;;;;;;15.33;100.00;101006.50;5096521;28;20092;-76
2021/07/27 04:44:05;;;;;;;67.97;35.45;;;;;;;15.40;100.00;101007.28;5096986;28;20540;-65
2021/07/27 04:46:31;;;;;;;65.78;36.10;;;;;;;15.42;100.00;101008.16;5096329;28;20020;-65
2021/07/27 04:48:56;;;;;;;63.53;35.28;;;;;;;15.48;100.00;101001.88;5094304;28;20071;-66
2021/07/27 04:51:21;;;;;;;64.35;35.10;;;;;;;15.49;100.00;101007.16;5088886;28;20429;-68
2021/07/27 04:53:49;;;;;;;61.22;34.03;;;;;;;15.52;100.00;101011.56;5096991;28;20023;-65
2021/07/27 04:56:14;;;;;;;61.20;34.45;;;;;;;15.56;100.00;101007.09;5096988;28;20047;-64
2021/07/27 04:58:39;;;;;;;60.28;34.30;;;;;;;15.57;100.00;101004.38;5088293;28;20045;-65
2021/07/27 05:01:05;;;;;;;62.10;34.42;;;;;;;15.60;100.00;101003.47;5088303;28;20021;-65
2021/07/27 05:03:30;;;;;;;61.22;34.65;;;;;;;15.64;100.00;101002.50;5085614;28;20040;-65
2021/07/27 05:05:56;;;;;;;63.13;34.42;;;;;;;15.71;100.00;101003.31;5090661;28;20037;-65
2021/07/27 05:08:21;;;;;;;61.42;33.67;;;;;;;15.77;100.00;101001.44;5095363;28;20029;-65
2021/07/27 05:10:47;;;;;;;60.70;33.78;;;;;;;15.84;100.00;100999.59;5094951;28;20032;-66
2021/07/27 05:13:12;;;;;;;59.05;33.35;;;;;;;15.93;100.00;101003.91;5092122;28;20052;-67
2021/07/27 05:15:37;;;;;;;60.88;34.03;;;;;;;16.00;100.00;101001.13;5086670;28;20070;-66
2021/07/27 05:18:03;;;;;;;64.15;35.70;;;;;;;16.08;100.00;100998.34;5079529;28;20028;-70
2021/07/27 05:20:28;;;;;;;60.95;34.00;;;;;;;16.17;100.00;100997.31;5076997;28;20407;-64
2021/07/27 05:22:54;;;;;;;60.95;34.65;;;;;;;16.25;100.00;100999.84;5090867;28;20035;-70
2021/07/27 05:25:20;;;;;;;64.57;36.25;;;;;;;16.30;100.00;100995.31;5075005;28;20162;-62
2021/07/27 05:27:46;;;;;;;62.63;35.58;;;;;;;16.50;100.00;100997.66;5074009;28;20420;-62
2021/07/27 05:30:13;;;;;;;62.72;35.08;;;;;;;16.82;100.00;100998.81;5074027;28;20103;-62
2021/07/27 05:32:38;;;;;;;59.13;35.05;;;;;;;17.05;100.00;100999.31;5074057;28;20398;-62
2021/07/27 05:35:04;;;;;;;58.35;34.42;;;;;;;17.14;100.00;100997.34;5073578;28;20024;-62
2021/07/27 05:37:29;;;;;;;56.70;32.97;;;;;;;17.20;100.00;100998.09;5073066;28;20114;-62
2021/07/27 05:39:56;;;;;;;55.90;34.03;;;;;;;17.25;100.00;101001.53;5074534;28;20021;-63
2021/07/27 05:42:21;;;;;;;53.95;32.03;;;;;;;17.31;100.00;100997.88;5076722;28;20024;-63
2021/07/27 05:44:47;;;;;;;51.45;30.90;;;;;;;17.38;100.00;100996.81;5078428;28;20039;-64
2021/07/27 05:47:12;;;;;;;52.13;30.70;;;;;;;17.42;100.00;101001.19;5073597;28;20024;-63
2021/07/27 05:49:38;;;;;;;53.88;30.13;;;;;;;17.46;100.00;101004.69;5077274;28;20397;-62
2021/07/27 05:52:04;;;;;;;49.90;29.83;;;;;;;17.40;100.00;101007.47;5077793;28;20039;-63
2021/07/27 05:54:30;;;;;;;53.90;30.92;;;;;;;17.41;100.00;101011.91;5076069;28;20024;-63
2021/07/27 05:56:56;;;;;;;50.45;28.40;;;;;;;17.34;100.00;101011.16;5075623;28;20048;-61
2021/07/27 05:59:22;;;;;;;50.38;29.38;;;;;;;17.25;100.00;101008.69;5078803;28;20052;-63
2021/07/27 06:01:48;;;;;;;49.85;29.52;;;;;;;17.21;100.00;101010.56;5074891;28;20028;-62
2021/07/27 06:04:14;;;;;;;54.05;28.77;;;;;;;17.26;100.00;101015.81;5079317;28;20031;-63
2021/07/27 06:06:40;;;;;;;48.75;28.40;;;;;;;17.35;100.00;101007.59;5079991;28;20047;-63
2021/07/27 06:09:07;;;;;;;47.97;27.98;;;;;;;17.41;100.00;101007.44;5079737;28;20428;-62
2021/07/27 06:11:33;;;;;;;51.05;28.10;;;;;;;17.51;100.00;101002.78;5079185;28;20111;-62
2021/07/27 06:14:03;;;;;;;49.97;27.60;;;;;;;17.57;100.00;101007.13;5077924;28;20058;-61
2021/07/27 06:16:30;;;;;;;50.63;28.38;;;;;;;17.55;100.00;101008.97;5077020;28;20025;-63
2021/07/27 06:18:55;;;;;;;51.78;28.17;;;;;;;17.71;100.00;101009.50;5078516;28;20074;-62
2021/07/27 06:21:21;;;;;;;50.45;27.85;;;;;;;18.08;100.00;101006.84;5078489;28;20364;-64
2021/07/27 06:23:46;;;;;;;47.63;26.92;;;;;;;18.24;97.14;101003.81;5077473;28;20021;-63
2021/07/27 06:26:12;;;;;;;48.38;26.58;;;;;;;18.12;98.84;101007.66;5081520;28;20058;-63
2021/07/27 06:28:37;;;;;;;50.80;28.27;;;;;;;18.12;97.75;101005.88;5078780;28;20044;-62
2021/07/27 06:31:11;;;;;;;48.30;27.70;;;;;;;18.14;97.61;101007.63;5078419;28;20486;-66
2021/07/27 06:33:41;;;;;;;47.25;27.20;;;;;;;18.18;100.00;101001.28;5076227;28;20062;-62
2021/07/27 06:36:07;;;;;;;45.92;26.17;;;;;;;18.21;97.81;101009.25;5079026;28;20029;-62
2021/07/27 06:38:33;;;;;;;46.08;26.63;;;;;;;18.11;100.00;101012.16;5078816;28;20478;-62
2021/07/27 06:41:00;;;;;;;47.58;26.05;;;;;;;18.10;97.34;101013.06;5076499;28;20032;-64
2021/07/27 06:43:25;;;;;;;47.13;27.20;;;;;;;18.11;100.00;101022.84;5077646;28;20173;-63
2021/07/27 06:45:52;;;;;;;45.30;26.05;;;;;;;18.18;99.26;101017.34;5071679;28;20104;-64
2021/07/27 06:48:17;;;;;;;46.30;26.30;;;;;;;18.13;99.20;101012.13;5068835;28;20047;-64
2021/07/27 06:50:43;;;;;;;45.78;25.88;;;;;;;18.11;100.00;101009.47;5068104;28;20025;-63
2021/07/27 06:53:08;;;;;;;45.28;26.05;;;;;;;18.05;99.60;101014.94;5076756;28;20024;-63
2021/07/27 06:55:33;;;;;;;45.60;25.73;;;;;;;17.98;99.67;101016.00;5078021;28;20514;-63
2021/07/27 06:57:59;;;;;;;45.72;25.98;;;;;;;17.98;100.00;101023.16;5076763;28;20048;-62
2021/07/27 07:00:24;;;;;;;45.95;25.73;;;;;;;17.92;100.00;101027.72;5077367;28;20020;-64
2021/07/27 07:02:49;;;;;;;45.80;25.98;;;;;;;17.90;100.00;101028.69;5075922;28;20028;-63
2021/07/27 07:05:14;;;;;;;45.92;26.67;;;;;;;17.97;100.00;101026.75;5076422;28;20433;-62
2021/07/27 07:07:40;;;;;;;42.88;25.33;;;;;;;18.09;100.00;101030.00;5079241;28;20028;-64
2021/07/27 07:10:06;;;;;;;45.60;26.08;;;;;;;18.19;99.15;101027.09;5074356;28;20026;-61
2021/07/27 07:12:31;;;;;;;46.15;25.67;;;;;;;18.23;100.00;101029.69;5067274;28;20479;-64
2021/07/27 07:14:57;;;;;;;44.97;24.65;;;;;;;18.30;100.00;101019.69;5078524;28;20064;-62
2021/07/27 07:17:23;;;;;;;45.88;25.05;;;;;;;18.43;100.00;101023.81;5073683;28;20028;-62
2021/07/27 07:19:50;;;;;;;44.10;24.83;;;;;;;18.64;96.41;101024.22;5076981;28;20070;-61
2021/07/27 07:22:17;;;;;;;43.67;24.58;;;;;;;18.77;96.88;101028.31;5078553;28;20025;-63
2021/07/27 07:24:43;;;;;;;42.22;24.23;;;;;;;18.99;93.10;101025.94;5074559;28;20352;-62
2021/07/27 07:27:09;;;;;;;40.65;23.75;;;;;;;19.34;94.10;101020.53;5067540;28;20036;-67
2021/07/27 07:29:35;;;;;;;43.10;24.80;;;;;;;19.56;88.38;101022.56;5071852;28;20021;-66
2021/07/27 07:32:00;;;;;;;40.65;23.23;;;;;;;19.65;84.61;101022.28;5075208;28;20049;-65
2021/07/27 07:34:25;;;;;;;37.53;22.40;;;;;;;19.79;84.87;101022.75;5074539;28;20501;-66
2021/07/27 07:36:51;;;;;;;39.95;22.35;;;;;;;19.85;82.46;101017.19;5074927;28;20078;-70
2021/07/27 07:39:16;;;;;;;40.67;23.30;;;;;;;19.85;85.18;101017.19;5074390;28;20025;-65
2021/07/27 07:41:41;;;;;;;42.08;24.30;;;;;;;19.98;80.83;101019.47;5075968;28;20024;-64
2021/07/27 07:44:09;;;;;;;39.10;23.60;;;;;;;19.98;79.43;101011.41;5075264;28;20463;-68
2021/07/27 07:46:34;;;;;;;38.90;22.52;;;;;;;20.11;80.48;101015.50;5074363;28;20057;-67
2021/07/27 07:49:00;;;;;;;37.60;22.80;;;;;;;20.19;79.05;101008.03;5074602;28;20025;-72
2021/07/27 07:51:26;;;;;;;38.03;21.83;;;;;;;20.29;77.15;100999.69;5072558;28;20074;-73
2021/07/27 07:53:51;;;;;;;36.15;21.75;;;;;;;20.35;77.07;101007.53;5073611;28;20029;-66
2021/07/27 07:56:16;;;;;;;37.17;21.38;;;;;;;20.40;78.63;101008.25;5076132;28;20437;-76
2021/07/27 07:58:42;;;;;;;37.88;20.65;;;;;;;20.34;74.83;101013.81;5075554;28;20041;-70
2021/07/27 08:01:08;;;;;;;35.72;19.92;;;;;;;20.08;74.14;101015.59;5079236;28;20042;-68
2021/07/27 08:03:33;;;;;;;34.50;20.48;;;;;;;19.98;76.96;101014.09;5078938;28;20035;-66
2021/07/27 08:05:59;;;;;;;39.47;21.15;;;;;;;20.01;77.60;101019.41;5076101;28;20107;-68
2021/07/27 08:08:24;;;;;;;37.25;20.75;;;;;;;20.36;76.25;101022.72;5076162;28;20033;-65
2021/07/27 08:10:49;;;;;;;35.05;20.88;;;;;;;20.54;73.84;101021.22;5079082;28;20025;-71
2021/07/27 08:13:15;;;;;;;32.60;19.35;;;;;;;20.50;74.38;101022.25;5078348;28;20470;-65
2021/07/27 08:15:40;;;;;;;36.70;20.08;;;;;;;20.55;73.65;101023.84;5078716;28;20412;-73
2021/07/27 08:18:05;;;;;;;35.42;20.13;;;;;;;20.67;73.49;101027.06;5081087;28;20020;-61
2021/07/27 08:20:31;;;;;;;37.30;21.10;;;;;;;20.63;73.47;101018.19;5075536;28;20112;-62
2021/07/27 08:22:58;;;;;;;39.88;22.05;;;;;;;20.54;73.12;101030.13;5077106;28;20036;-62
2021/07/27 08:25:23;;;;;;;38.38;22.60;;;;;;;20.36;73.60;101023.59;5077027;28;20028;-62
2021/07/27 08:27:49;;;;;;;37.15;21.88;;;;;;;20.38;74.40;101032.47;5080681;28;20023;-62
2021/07/27 08:30:15;;;;;;;38.63;22.90;;;;;;;20.80;73.17;101020.31;5072290;28;20028;-64
2021/07/27 08:32:45;;;;;;;34.83;21.45;;;;;;;21.35;71.37;101016.56;5067888;28;20105;-63
2021/07/27 08:35:12;;;;;;;36.70;22.83;;;;;;;21.59;70.55;101023.69;5069245;28;20344;-62
2021/07/27 08:37:37;;;;;;;38.42;23.27;;;;;;;21.31;68.72;101007.72;5074677;28;20039;-64
2021/07/27 08:40:03;;;;;;;37.42;22.80;;;;;;;21.27;69.08;101006.06;5077613;28;20374;-65
2021/07/27 08:42:29;;;;;;;35.42;21.75;;;;;;;21.38;68.41;101014.63;5079289;28;20463;-65
2021/07/27 08:44:57;;;;;;;36.80;21.73;;;;;;;21.54;69.38;101014.06;5078066;28;20025;-67
2021/07/27 08:47:24;;;;;;;37.33;22.52;;;;;;;21.49;65.81;101008.81;5077792;28;20479;-66
2021/07/27 08:49:49;;;;;;;35.88;21.70;;;;;;;21.25;67.99;101011.50;5070809;28;20051;-64
2021/07/27 08:52:15;;;;;;;35.58;22.58;;;;;;;21.10;70.23;101013.91;5071815;28;20028;-65
2021/07/27 08:54:43;;;;;;;38.97;22.85;;;;;;;21.03;70.58;101016.81;5072631;28;20024;-64
2021/07/27 08:57:14;;;;;;;36.78;21.95;;;;;;;21.25;69.70;101030.34;5071909;28;20039;-63
2021/07/27 08:59:39;;;;;;;34.00;20.90;;;;;;;21.37;67.58;101036.19;5070391;28;20340;-65
2021/07/27 09:02:04;;;;;;;34.28;20.58;;;;;;;21.41;68.32;101029.75;5071528;28;20028;-65
2021/07/27 09:04:30;;;;;;;34.20;19.10;;;;;;;21.55;66.31;101042.69;5078504;28;20051;-64
2021/07/27 09:07:03;;;;;;;38.17;20.27;;;;;;;21.67;67.87;101036.88;5077560;28;20480;-64
2021/07/27 09:09:34;;;;;;;35.17;20.55;;;;;;;22.01;67.17;101040.03;5080032;28;20029;-64
2021/07/27 09:12:02;;;;;;;36.35;19.88;;;;;;;22.06;64.28;101035.31;5079437;28;20547;-65
2021/07/27 09:14:30;;;;;;;34.15;20.10;;;;;;;21.96;65.40;101031.25;5077465;28;20148;-66
2021/07/27 09:16:57;;;;;;;34.03;19.27;;;;;;;22.02;63.26;101039.06;5079536;28;20028;-64
2021/07/27 09:19:23;;;;;;;34.53;19.25;;;;;;;21.90;64.04;101038.66;5078760;28;20028;-63
2021/07/27 09:21:49;;;;;;;33.95;19.15;;;;;;;21.83;64.80;101039.81;5080218;28;20028;-64
2021/07/27 09:24:20;;;;;;;33.22;20.30;;;;;;;21.61;65.14;101037.09;5079523;28;20024;-65
2021/07/27 09:26:55;;;;;;;35.53;19.90;;;;;;;22.10;65.52;101024.34;5078617;28;20026;-64
2021/07/27 09:29:23;;;;;;;32.13;18.42;;;;;;;22.50;61.71;101035.34;5076719;28;20482;-65
2021/07/27 09:31:52;;;;;;;32.70;18.73;;;;;;;22.55;61.99;101027.06;5074472;28;20498;-66
2021/07/27 09:34:17;;;;;;;32.92;18.75;;;;;;;22.84;59.92;101022.22;5080343;28;20028;-64
2021/07/27 09:36:43;;;;;;;33.10;18.95;;;;;;;22.89;59.78;101039.94;5079111;28;20032;-65
2021/07/27 09:39:08;;;;;;;31.88;19.30;;;;;;;22.91;60.54;101029.97;5077450;28;20024;-66
2021/07/27 09:41:34;;;;;;;32.60;19.92;;;;;;;22.99;61.31;101040.38;5077587;28;20102;-64
2021/07/27 09:44:07;;;;;;;34.38;19.50;;;;;;;22.93;61.42;101041.53;5079388;28;20584;-63
2021/07/27 09:46:32;;;;;;;31.88;19.33;;;;;;;22.68;62.59;101036.34;5085868;28;20055;-63
2021/07/27 09:48:59;;;;;;;33.47;19.30;;;;;;;22.21;60.21;101048.16;5098037;28;20025;-61
2021/07/27 09:51:28;;;;;;;33.00;19.65;;;;;;;21.89;64.40;101039.56;5081117;28;20458;-61
2021/07/27 09:53:54;;;;;;;32.63;18.90;;;;;;;21.84;63.38;101041.56;5075772;28;20016;-61
2021/07/27 09:56:20;;;;;;;31.55;19.33;;;;;;;21.98;63.77;101038.31;5072816;28;20032;-62
2021/07/27 09:58:46;;;;;;;31.67;20.15;;;;;;;22.09;63.25;101043.25;5072910;28;20044;-62
2021/07/27 10:01:18;;;;;;;34.30;19.90;;;;;;;22.00;63.37;101044.50;5072760;28;20486;-65
2021/07/27 10:04:01;;;;;;;33.20;20.00;;;;;;;22.14;63.66;101043.09;5072949;28;20407;-81
2021/07/27 10:06:31;;;;;;;34.22;20.88;;;;;;;21.91;64.81;101035.00;5069523;28;20028;-72
2021/07/27 10:08:58;;;;;;;33.05;20.63;;;;;;;22.14;64.28;101030.50;5073222;28;20020;-76
2021/07/27 10:11:43;;;;;;;35.17;21.83;;;;;;;22.36;65.19;101037.72;5073173;28;20029;-77
2021/07/27 10:14:17;;;;;;;31.45;19.70;;;;;;;22.20;63.71;101046.41;5071293;28;20028;-65
2021/07/27 10:16:43;;;;;;;33.97;20.27;;;;;;;21.96;64.38;101053.69;5073163;28;20149;-65
2021/07/27 10:19:12;;;;;;;33.80;20.15;;;;;;;21.78;65.19;101036.44;5073285;28;20020;-82
2021/07/27 10:21:38;;;;;;;33.33;19.20;;;;;;;21.90;63.58;101027.88;5072608;28;20119;-76
2021/07/27 10:24:20;;;;;;;34.85;20.92;;;;;;;21.83;65.07;101039.81;5072730;28;20103;-71
2021/07/27 10:26:47;;;;;;;35.63;20.10;;;;;;;21.57;65.28;101030.97;5072946;28;20032;-72
2021/07/27 10:29:13;;;;;;;33.40;20.25;;;;;;;21.75;64.70;101044.63;5073181;28;20025;-65
2021/07/27 10:31:45;;;;;;;34.33;20.45;;;;;;;21.85;64.64;101039.75;5072661;28;20387;-61
2021/07/27 10:34:13;;;;;;;33.97;21.35;;;;;;;21.91;64.87;101053.84;5072939;28;20040;-61
2021/07/27 10:36:42;;;;;;;32.45;19.60;;;;;;;21.88;64.03;101051.25;5072948;28;20044;-61
2021/07/27 10:39:10;;;;;;;34.67;20.65;;;;;;;21.97;64.87;101055.41;5073039;28;20024;-61
2021/07/27 10:41:42;;;;;;;33.97;19.90;;;;;;;22.26;62.98;101051.53;5073912;28;20036;-61
2021/07/27 10:44:11;;;;;;;35.00;20.77;;;;;;;22.38;63.29;101049.31;5073838;28;20056;-61
2021/07/27 10:46:38;;;;;;;33.78;19.27;;;;;;;22.61;61.99;101043.81;5073591;28;20277;-61
2021/07/27 10:49:04;;;;;;;30.52;15.90;;;;;;;22.57;60.83;101041.31;5072537;28;20021;-62
2021/07/27 10:51:35;;;;;;;30.40;16.70;;;;;;;22.37;60.40;101058.34;5072422;28;20040;-61
2021/07/27 10:54:01;;;;;;;30.58;16.95;;;;;;;22.58;60.99;101052.03;5072505;28;20372;-61
2021/07/27 10:56:28;;;;;;;29.27;16.88;;;;;;;22.91;60.09;101051.53;5072387;28;20020;-61
2021/07/27 10:58:54;;;;;;;29.67;17.77;;;;;;;23.01;59.27;101048.41;5072288;28;20040;-61
2021/07/27 11:01:21;;;;;;;29.88;17.63;;;;;;;23.22;58.53;101060.09;5072777;28;20031;-62
2021/07/27 11:03:48;;;;;;;28.52;16.50;;;;;;;23.38;58.34;101058.44;5072294;28;20534;-61
2021/07/27 11:06:13;;;;;;;30.80;18.38;;;;;;;24.05;58.39;101049.97;5072560;28;20021;-61
2021/07/27 11:08:39;;;;;;;30.92;19.02;;;;;;;24.68;56.33;101052.22;5072409;28;20031;-61
2021/07/27 11:11:09;;;;;;;33.53;18.90;;;;;;;24.68;54.30;101057.63;5072187;28;20530;-61
2021/07/27 11:13:37;;;;;;;32.10;18.52;;;;;;;24.30;55.10;101057.72;5072315;28;20028;-62
2021/07/27 11:16:03;;;;;;;30.55;19.45;;;;;;;23.62;58.05;101066.34;5068624;28;20075;-61
2021/07/27 11:18:30;;;;;;;31.58;19.80;;;;;;;22.91;60.42;101053.34;5070538;28;20028;-61
2021/07/27 11:20:57;;;;;;;33.70;20.45;;;;;;;22.81;63.26;101064.50;5071992;28;20028;-62
2021/07/27 11:23:23;;;;;;;28.80;17.38;;;;;;;23.20;62.17;101045.78;5068820;28;20056;-60